createdAt,value
2016-05-28T00:00:26.470Z,1011.85
2016-05-28T00:01:26.488Z,1011.86
2016-05-28T00:02:26.522Z,1011.83
2016-05-28T00:03:26.541Z,1011.83
2016-05-28T00:04:26.934Z,1011.85
2016-05-28T00:06:26.612Z,1011.82
2016-05-28T00:07:26.629Z,1011.81
2016-05-28T00:08:26.649Z,1011.85
2016-05-28T00:09:26.682Z,1011.82
2016-05-28T00:10:26.700Z,1011.82
2016-05-28T00:11:26.735Z,1011.81
2016-05-28T00:12:26.753Z,1011.77
2016-05-28T00:13:26.771Z,1011.8
2016-05-28T00:14:26.805Z,1011.82
2016-05-28T00:15:26.823Z,1011.77
2016-05-28T00:16:26.842Z,1011.81
2016-05-28T00:17:26.859Z,1011.77
2016-05-28T00:18:26.894Z,1011.73
2016-05-28T00:19:26.912Z,1011.71
2016-05-28T00:21:26.964Z,1011.73
2016-05-28T00:22:26.983Z,1011.69
2016-05-28T00:23:27.017Z,1011.68
2016-05-28T00:24:27.036Z,1011.68
2016-05-28T00:25:27.053Z,1011.66
2016-05-28T00:26:27.086Z,1011.66
2016-05-28T00:27:27.106Z,1011.66
2016-05-28T00:28:27.124Z,1011.66
2016-05-28T00:29:27.158Z,1011.64
2016-05-28T00:30:27.177Z,1011.67
2016-05-28T00:31:27.194Z,1011.63
2016-05-28T00:32:27.228Z,1011.61
2016-05-28T00:33:27.247Z,1011.6
2016-05-28T00:34:27.265Z,1011.6
2016-05-28T00:35:27.299Z,1011.61
2016-05-28T00:36:27.318Z,1011.58
2016-05-28T00:37:27.336Z,1011.53
2016-05-28T00:38:27.369Z,1011.56
2016-05-28T00:39:27.388Z,1011.57
2016-05-28T00:40:27.406Z,1011.55
2016-05-28T00:41:27.440Z,1011.55
2016-05-28T00:42:27.459Z,1011.56
2016-05-28T00:43:27.477Z,1011.51
2016-05-28T00:44:27.510Z,1011.55
2016-05-28T00:45:27.529Z,1011.54
2016-05-28T00:46:27.548Z,1011.54
2016-05-28T00:47:27.582Z,1011.55
2016-05-28T00:48:27.600Z,1011.52
2016-05-28T00:49:27.618Z,1011.57
2016-05-28T00:50:27.651Z,1011.55
2016-05-28T00:51:27.670Z,1011.57
2016-05-28T00:53:27.706Z,1011.55
2016-05-28T00:54:27.741Z,1011.54
2016-05-28T00:55:27.759Z,1011.53
2016-05-28T00:56:27.777Z,1011.51
2016-05-28T00:57:27.812Z,1011.49
2016-05-28T00:58:27.830Z,1011.52
2016-05-28T00:59:27.847Z,1011.52
2016-05-28T01:00:27.883Z,1011.51
2016-05-28T01:01:27.900Z,1011.52
2016-05-28T01:02:27.918Z,1011.47
2016-05-28T01:03:27.952Z,1011.5
2016-05-28T01:04:27.986Z,1011.49
2016-05-28T01:05:27.989Z,1011.51
2016-05-28T01:06:28.023Z,1011.5
2016-05-28T01:07:28.041Z,1011.46
2016-05-28T01:09:28.172Z,1011.5
2016-05-28T01:10:28.113Z,1011.44
2016-05-28T01:11:28.145Z,1011.51
2016-05-28T01:12:28.226Z,1011.45
2016-05-28T01:13:28.182Z,1011.45
2016-05-28T01:14:28.263Z,1011.45
2016-05-28T01:15:28.218Z,1011.46
2016-05-28T01:16:28.254Z,1011.46
2016-05-28T01:17:28.271Z,1011.49
2016-05-28T01:18:28.290Z,1011.46
2016-05-28T01:19:28.339Z,1011.48
2016-05-28T01:20:28.342Z,1011.49
2016-05-28T01:21:28.360Z,1011.51
2016-05-28T01:22:28.394Z,1011.52
2016-05-28T01:23:28.412Z,1011.49
2016-05-28T01:25:28.464Z,1011.48
2016-05-28T01:26:28.483Z,1011.54
2016-05-28T01:27:28.500Z,1011.5
2016-05-28T01:28:28.520Z,1011.5
2016-05-28T01:29:28.570Z,1011.48
2016-05-28T01:30:28.572Z,1011.49
2016-05-28T01:31:28.591Z,1011.43
2016-05-28T01:32:28.624Z,1011.39
2016-05-28T01:33:28.642Z,1011.43
2016-05-28T01:34:28.661Z,1011.4
2016-05-28T01:35:28.694Z,1011.38
2016-05-28T01:36:28.713Z,1011.38
2016-05-28T01:37:28.732Z,1011.4
2016-05-28T01:38:28.765Z,1011.37
2016-05-28T01:39:28.783Z,1011.36
2016-05-28T01:41:28.836Z,1011.35
2016-05-28T01:42:28.870Z,1011.35
2016-05-28T01:43:28.873Z,1011.34
2016-05-28T01:44:28.891Z,1011.36
2016-05-28T01:45:28.924Z,1011.33
2016-05-28T01:46:28.943Z,1011.35
2016-05-28T01:47:28.962Z,1011.32
2016-05-28T01:48:28.979Z,1011.38
2016-05-28T01:49:29.014Z,1011.37
2016-05-28T01:50:29.032Z,1011.36
2016-05-28T01:51:29.050Z,1011.34
2016-05-28T01:52:29.084Z,1011.38
2016-05-28T01:53:29.102Z,1011.35
2016-05-28T01:54:29.136Z,1011.34
2016-05-28T01:56:29.173Z,1011.35
2016-05-28T01:57:29.192Z,1011.28
2016-05-28T01:58:29.241Z,1011.31
2016-05-28T01:59:29.244Z,1011.28
2016-05-28T02:00:29.278Z,1011.35
2016-05-28T02:01:29.296Z,1011.34
2016-05-28T02:02:29.314Z,1011.35
2016-05-28T02:03:29.332Z,1011.38
2016-05-28T02:04:29.366Z,1011.38
2016-05-28T02:05:29.385Z,1011.39
2016-05-28T02:06:29.403Z,1011.38
2016-05-28T02:07:29.422Z,1011.35
2016-05-28T02:08:29.455Z,1011.36
2016-05-28T02:09:29.505Z,1011.34
2016-05-28T02:10:29.492Z,1011.37
2016-05-28T02:11:29.527Z,1011.34
2016-05-28T02:12:29.544Z,1011.33
2016-05-28T02:13:29.562Z,1011.37
2016-05-28T02:14:29.596Z,1011.34
2016-05-28T02:15:29.615Z,1011.34
2016-05-28T02:16:29.633Z,1011.33
2016-05-28T02:17:29.651Z,1011.34
2016-05-28T02:18:29.685Z,1011.37
2016-05-28T02:19:29.703Z,1011.35
2016-05-28T02:20:29.723Z,1011.34
2016-05-28T02:21:29.756Z,1011.32
2016-05-28T02:22:29.773Z,1011.33
2016-05-28T02:23:29.793Z,1011.32
2016-05-28T02:24:29.811Z,1011.3
2016-05-28T02:25:29.845Z,1011.31
2016-05-28T02:26:29.864Z,1011.32
2016-05-28T02:28:29.915Z,1011.26
2016-05-28T02:29:29.934Z,1011.27
2016-05-28T02:30:29.952Z,1011.27
2016-05-28T02:31:29.970Z,1011.3
2016-05-28T02:32:30.005Z,1011.27
2016-05-28T02:33:30.022Z,1011.28
2016-05-28T02:34:30.103Z,1011.27
2016-05-28T02:35:30.074Z,1011.26
2016-05-28T02:36:30.093Z,1011.26
2016-05-28T02:37:30.112Z,1011.26
2016-05-28T02:38:30.146Z,1011.25
2016-05-28T02:39:30.164Z,1011.25
2016-05-28T02:40:30.182Z,1011.25
2016-05-28T02:41:30.200Z,1011.22
2016-05-28T02:42:30.234Z,1011.26
2016-05-28T02:44:30.271Z,1011.3
2016-05-28T02:45:30.289Z,1011.32
2016-05-28T02:46:30.324Z,1011.29
2016-05-28T02:47:30.341Z,1011.27
2016-05-28T02:48:30.376Z,1011.26
2016-05-28T02:49:30.393Z,1011.3
2016-05-28T02:50:30.412Z,1011.28
2016-05-28T02:51:30.446Z,1011.31
2016-05-28T02:52:30.449Z,1011.29
2016-05-28T02:53:30.483Z,1011.28
2016-05-28T02:54:30.500Z,1011.29
2016-05-28T02:55:30.519Z,1011.26
2016-05-28T02:56:30.553Z,1011.22
2016-05-28T02:57:30.572Z,1011.28
2016-05-28T02:58:30.605Z,1011.26
2016-05-28T03:00:30.642Z,1011.25
2016-05-28T03:01:30.660Z,1011.26
2016-05-28T03:02:30.679Z,1011.26
2016-05-28T03:03:30.713Z,1011.32
2016-05-28T03:04:30.981Z,1011.28
2016-05-28T03:05:30.749Z,1011.25
2016-05-28T03:06:30.783Z,1011.24
2016-05-28T03:07:30.801Z,1011.25
2016-05-28T03:08:30.820Z,1011.25
2016-05-28T03:09:30.838Z,1011.23
2016-05-28T03:10:30.857Z,1011.23
2016-05-28T03:11:30.891Z,1011.22
2016-05-28T03:12:30.909Z,1011.21
2016-05-28T03:13:30.927Z,1011.21
2016-05-28T03:14:30.961Z,1011.23
2016-05-28T03:16:30.998Z,1011.25
2016-05-28T03:17:31.015Z,1011.26
2016-05-28T03:18:31.050Z,1011.24
2016-05-28T03:19:31.068Z,1011.25
2016-05-28T03:20:31.087Z,1011.24
2016-05-28T03:21:31.120Z,1011.27
2016-05-28T03:22:31.139Z,1011.27
2016-05-28T03:23:31.157Z,1011.27
2016-05-28T03:24:31.176Z,1011.29
2016-05-28T03:25:31.209Z,1011.23
2016-05-28T03:26:31.228Z,1011.26
2016-05-28T03:27:31.245Z,1011.25
2016-05-28T03:28:31.264Z,1011.26
2016-05-28T03:29:31.298Z,1011.22
2016-05-28T03:31:31.334Z,1011.27
2016-05-28T03:32:31.369Z,1011.23
2016-05-28T03:33:31.387Z,1011.19
2016-05-28T03:34:31.921Z,1011.19
2016-05-28T03:35:32.080Z,1011.25
2016-05-28T03:36:31.442Z,1011.22
2016-05-28T03:37:31.475Z,1011.24
2016-05-28T03:38:31.494Z,1011.25
2016-05-28T03:39:31.512Z,1011.23
2016-05-28T03:40:31.546Z,1011.22
2016-05-28T03:41:31.566Z,1011.23
2016-05-28T03:42:31.583Z,1011.26
2016-05-28T03:43:31.616Z,1011.21
2016-05-28T03:44:31.636Z,1011.25
2016-05-28T03:45:31.654Z,1011.27
2016-05-28T03:46:31.672Z,1011.25
2016-05-28T03:47:31.706Z,1011.27
2016-05-28T03:48:31.724Z,1011.24
2016-05-28T03:49:31.743Z,1011.24
2016-05-28T03:50:31.761Z,1011.27
2016-05-28T03:51:31.795Z,1011.23
2016-05-28T03:52:31.813Z,1011.24
2016-05-28T03:53:31.848Z,1011.27
2016-05-28T03:54:31.866Z,1011.24
2016-05-28T03:55:31.884Z,1011.29
2016-05-28T03:56:31.901Z,1011.24
2016-05-28T03:57:31.936Z,1011.28
2016-05-28T03:58:31.954Z,1011.29
2016-05-28T03:59:31.972Z,1011.28
2016-05-28T04:00:32.006Z,1011.27
2016-05-28T04:01:32.025Z,1011.22
2016-05-28T04:03:32.078Z,1011.22
2016-05-28T04:04:32.111Z,1011.22
2016-05-28T04:05:32.114Z,1011.21
2016-05-28T04:06:32.133Z,1011.23
2016-05-28T04:07:32.166Z,1011.24
2016-05-28T04:08:32.199Z,1011.25
2016-05-28T04:09:32.219Z,1011.31
2016-05-28T04:10:32.236Z,1011.42
2016-05-28T04:11:32.255Z,1011.46
2016-05-28T04:12:32.274Z,1011.45
2016-05-28T04:13:32.291Z,1011.41
2016-05-28T04:14:32.341Z,1011.46
2016-05-28T04:15:32.344Z,1011.48
2016-05-28T04:16:32.363Z,1011.42
2016-05-28T04:17:32.396Z,1011.42
2016-05-28T04:19:32.449Z,1011.4
2016-05-28T04:20:32.466Z,1011.4
2016-05-28T04:21:32.485Z,1011.41
2016-05-28T04:22:32.503Z,1011.38
2016-05-28T04:23:32.553Z,1011.39
2016-05-28T04:24:32.571Z,1011.39
2016-05-28T04:25:32.574Z,1011.38
2016-05-28T04:26:32.607Z,1011.39
2016-05-28T04:27:32.626Z,1011.43
2016-05-28T04:28:32.644Z,1011.45
2016-05-28T04:29:32.678Z,1011.49
2016-05-28T04:30:32.697Z,1011.5
2016-05-28T04:31:32.730Z,1011.55
2016-05-28T04:32:32.748Z,1011.66
2016-05-28T04:33:32.767Z,1011.66
2016-05-28T04:35:32.819Z,1011.64
2016-05-28T04:36:32.838Z,1011.72
2016-05-28T04:37:32.872Z,1011.73
2016-05-28T04:38:32.890Z,1011.6
2016-05-28T04:39:32.924Z,1011.65
2016-05-28T04:40:32.942Z,1011.66
2016-05-28T04:41:32.961Z,1011.61
2016-05-28T04:42:32.994Z,1011.77
2016-05-28T04:43:33.013Z,1011.74
2016-05-28T04:44:33.047Z,1011.6
2016-05-28T04:45:33.066Z,1011.58
2016-05-28T04:46:33.099Z,1011.54
2016-05-28T04:47:33.149Z,1011.59
2016-05-28T04:48:33.152Z,1011.57
2016-05-28T04:49:33.685Z,1011.66
2016-05-28T04:51:33.222Z,1011.9
2016-05-28T04:52:33.240Z,1011.89
2016-05-28T04:53:33.274Z,1011.74
2016-05-28T04:54:33.293Z,1011.58
2016-05-28T04:55:33.326Z,1011.75
2016-05-28T04:56:33.345Z,1011.69
2016-05-28T04:57:33.378Z,1011.79
2016-05-28T04:58:33.397Z,1011.85
2016-05-28T04:59:33.431Z,1011.88
2016-05-28T05:00:33.465Z,1011.82
2016-05-28T05:01:33.483Z,1011.82
2016-05-28T05:02:33.517Z,1011.73
2016-05-28T05:03:33.536Z,1011.75
2016-05-28T05:04:33.569Z,1011.63
2016-05-28T05:06:33.621Z,1011.64
2016-05-28T05:07:33.639Z,1011.62
2016-05-28T05:08:33.684Z,1011.65
2016-05-28T05:09:33.742Z,1011.65
2016-05-28T05:10:33.784Z,1011.64
2016-05-28T05:11:33.843Z,1011.61
2016-05-28T05:12:33.885Z,1011.66
2016-05-28T05:13:33.939Z,1011.66
2016-05-28T05:14:33.966Z,1011.67
2016-05-28T05:15:34.008Z,1011.65
2016-05-28T05:16:34.035Z,1011.65
2016-05-28T05:17:34.078Z,1011.67
2016-05-28T05:18:34.120Z,1011.69
2016-05-28T05:19:34.140Z,1011.66
2016-05-28T05:20:34.458Z,1011.66
2016-05-28T05:21:34.199Z,1011.66
2016-05-28T05:22:34.221Z,1011.67
2016-05-28T05:23:34.256Z,1011.69
2016-05-28T05:24:34.277Z,1011.68
2016-05-28T05:25:34.311Z,1011.68
2016-05-28T05:26:34.330Z,1011.65
2016-05-28T05:27:34.366Z,1011.66
2016-05-28T05:28:34.384Z,1011.63
2016-05-28T05:29:34.419Z,1011.64
2016-05-28T05:30:34.437Z,1011.63
2016-05-28T05:31:34.472Z,1011.57
2016-05-28T05:32:34.491Z,1011.65
2016-05-28T05:33:34.525Z,1011.63
2016-05-28T05:34:34.559Z,1011.65
2016-05-28T05:35:34.576Z,1011.66
2016-05-28T05:36:34.596Z,1011.7
2016-05-28T05:38:34.648Z,1011.7
2016-05-28T05:39:34.665Z,1011.69
2016-05-28T05:40:34.700Z,1011.71
2016-05-28T05:41:34.718Z,1011.7
2016-05-28T05:42:34.752Z,1011.69
2016-05-28T05:43:34.770Z,1011.71
2016-05-28T05:44:34.804Z,1011.74
2016-05-28T05:45:34.823Z,1011.77
2016-05-28T05:46:34.857Z,1011.72
2016-05-28T05:47:34.875Z,1011.75
2016-05-28T05:48:34.908Z,1011.72
2016-05-28T05:49:35.100Z,1011.72
2016-05-28T05:50:34.961Z,1011.72
2016-05-28T05:51:34.980Z,1011.72
2016-05-28T05:52:35.014Z,1011.72
2016-05-28T05:54:35.050Z,1011.7
2016-05-28T05:55:35.083Z,1011.74
2016-05-28T05:56:35.103Z,1011.79
2016-05-28T05:57:35.136Z,1011.84
2016-05-28T05:58:35.155Z,1011.94
2016-05-28T05:59:35.189Z,1011.93
2016-05-28T06:00:35.222Z,1011.92
2016-05-28T06:01:35.241Z,1011.74
2016-05-28T06:02:35.259Z,1011.76
2016-05-28T06:03:35.294Z,1012.06
2016-05-28T06:04:35.327Z,1012.1
2016-05-28T06:05:35.971Z,1012.12
2016-05-28T06:06:35.363Z,1012.13
2016-05-28T06:07:35.397Z,1012.17
2016-05-28T06:08:35.431Z,1012.19
2016-05-28T06:10:35.484Z,1012.15
2016-05-28T06:11:35.517Z,1012.16
2016-05-28T06:12:35.536Z,1012.17
2016-05-28T06:13:35.570Z,1012.2
2016-05-28T06:14:35.604Z,1012.29
2016-05-28T06:15:35.622Z,1012.32
2016-05-28T06:16:35.656Z,1012.35
2016-05-28T06:17:35.690Z,1012.39
2016-05-28T06:18:35.724Z,1012.4
2016-05-28T06:19:35.758Z,1012.36
2016-05-28T06:20:35.792Z,1012.31
2016-05-28T06:21:35.811Z,1012.32
2016-05-28T06:22:35.844Z,1012.34
2016-05-28T06:23:35.878Z,1012.31
2016-05-28T06:24:35.912Z,1012.31
2016-05-28T06:26:35.980Z,1012.28
2016-05-28T06:27:36.014Z,1012.34
2016-05-28T06:28:36.047Z,1012.31
2016-05-28T06:29:36.066Z,1012.32
2016-05-28T06:30:36.100Z,1012.32
2016-05-28T06:31:36.133Z,1012.32
2016-05-28T06:32:36.168Z,1012.3
2016-05-28T06:33:36.202Z,1012.31
2016-05-28T06:34:36.236Z,1012.25
2016-05-28T06:35:36.269Z,1012.25
2016-05-28T06:36:36.304Z,1012.24
2016-05-28T06:37:36.337Z,1012.25
2016-05-28T06:38:36.371Z,1012.27
2016-05-28T06:39:36.405Z,1012.21
2016-05-28T06:41:36.473Z,1012.23
2016-05-28T06:42:36.507Z,1012.28
2016-05-28T06:43:36.541Z,1012.26
2016-05-28T06:44:36.575Z,1012.27
2016-05-28T06:45:36.609Z,1012.27
2016-05-28T06:46:36.642Z,1012.29
2016-05-28T06:47:36.677Z,1012.26
2016-05-28T06:48:36.711Z,1012.26
2016-05-28T06:49:36.745Z,1012.29
2016-05-28T06:50:36.778Z,1012.35
2016-05-28T06:51:36.812Z,1012.33
2016-05-28T06:52:36.847Z,1012.3
2016-05-28T06:53:36.880Z,1012.28
2016-05-28T06:54:36.931Z,1012.26
2016-05-28T06:55:36.964Z,1012.25
2016-05-28T06:56:36.997Z,1012.26
2016-05-28T06:57:37.033Z,1012.25
2016-05-28T06:58:37.067Z,1012.29
2016-05-28T06:59:37.100Z,1012.32
2016-05-28T07:00:37.133Z,1012.41
2016-05-28T07:01:37.168Z,1012.62
2016-05-28T07:02:37.202Z,1012.86
2016-05-28T07:03:37.235Z,1012.99
2016-05-28T07:04:37.269Z,1013.02
2016-05-28T07:05:37.319Z,1013.04
2016-05-28T07:06:37.352Z,1013.03
2016-05-28T07:07:37.387Z,1013.05
2016-05-28T07:08:37.421Z,1013.05
2016-05-28T07:09:37.455Z,1013.07
2016-05-28T07:10:37.488Z,1013.06
2016-05-28T07:11:37.523Z,1013.08
2016-05-28T07:13:37.606Z,1013.12
2016-05-28T07:14:37.640Z,1013.16
2016-05-28T07:15:37.673Z,1013.17
2016-05-28T07:16:37.709Z,1013.16
2016-05-28T07:17:37.742Z,1013.22
2016-05-28T07:18:37.776Z,1013.2
2016-05-28T07:19:37.809Z,1013.18
2016-05-28T07:20:37.844Z,1013.15
2016-05-28T07:21:37.892Z,1013.19
2016-05-28T07:22:37.928Z,1013.15
2016-05-28T07:23:37.961Z,1013.14
2016-05-28T07:24:37.995Z,1013.1
2016-05-28T07:25:38.029Z,1013.06
2016-05-28T07:26:38.063Z,1013.08
2016-05-28T07:27:38.097Z,1012.99
2016-05-28T07:29:38.165Z,1012.85
2016-05-28T07:30:38.199Z,1012.88
2016-05-28T07:31:38.248Z,1012.85
2016-05-28T07:32:38.283Z,1012.75
2016-05-28T07:33:38.317Z,1012.66
2016-05-28T07:34:38.710Z,1012.63
2016-05-28T07:35:38.384Z,1012.57
2016-05-28T07:36:38.418Z,1012.53
2016-05-28T07:37:38.452Z,1012.49
2016-05-28T07:38:38.501Z,1012.44
2016-05-28T07:39:38.535Z,1012.38
2016-05-28T07:40:38.569Z,1012.31
2016-05-28T07:41:38.604Z,1012.21
2016-05-28T07:42:38.637Z,1012.17
2016-05-28T07:43:38.671Z,1012.14
2016-05-28T07:45:38.739Z,1011.63
2016-05-28T07:46:38.773Z,1011.62
2016-05-28T07:47:38.822Z,1011.6
2016-05-28T07:48:38.856Z,1011.55
2016-05-28T07:49:39.187Z,1011.58
2016-05-28T07:50:38.925Z,1011.6
2016-05-28T07:51:38.958Z,1011.58
2016-05-28T07:52:38.992Z,1011.59
2016-05-28T07:53:39.026Z,1011.63
2016-05-28T07:54:39.075Z,1011.64
2016-05-28T07:55:39.109Z,1011.64
2016-05-28T07:56:39.144Z,1011.6
2016-05-28T07:57:39.178Z,1011.62
2016-05-28T07:58:39.212Z,1011.63
2016-05-28T07:59:39.245Z,1011.61
2016-05-28T08:01:39.314Z,1011.6
2016-05-28T08:02:39.347Z,1011.56
2016-05-28T08:03:39.397Z,1011.52
2016-05-28T08:04:39.430Z,1011.5
2016-05-28T08:05:39.465Z,1011.46
2016-05-28T08:06:39.499Z,1011.53
2016-05-28T08:07:39.532Z,1011.61
2016-05-28T08:08:39.566Z,1011.65
2016-05-28T08:09:39.601Z,1011.63
2016-05-28T08:10:39.650Z,1011.58
2016-05-28T08:11:39.684Z,1011.58
2016-05-28T08:12:42.234Z,1011.58
2016-05-28T08:13:39.752Z,1011.59
2016-05-28T08:14:39.785Z,1011.58
2016-05-28T08:16:39.854Z,1011.56
2016-05-28T08:17:39.887Z,1011.54
2016-05-28T08:18:39.937Z,1011.54
2016-05-28T08:19:39.971Z,1011.49
2016-05-28T08:20:40.005Z,1011.49
2016-05-28T08:21:40.040Z,1011.5
2016-05-28T08:22:40.073Z,1011.06
2016-05-28T08:23:40.106Z,1011.43
2016-05-28T08:24:40.141Z,1011.58
2016-05-28T08:25:40.175Z,1011.66
2016-05-28T08:26:40.208Z,1011.71
2016-05-28T08:27:40.259Z,1011.73
2016-05-28T08:28:40.292Z,1011.69
2016-05-28T08:29:40.326Z,1011.73
2016-05-28T08:30:40.361Z,1010.98
2016-05-28T08:31:40.394Z,1011.18
2016-05-28T08:32:40.428Z,1011.62
2016-05-28T08:33:40.461Z,1011.61
2016-05-28T08:34:40.496Z,1011.62
2016-05-28T08:35:40.530Z,1011.62
2016-05-28T08:36:40.563Z,1011.44
2016-05-28T08:37:40.597Z,1011.02
2016-05-28T08:38:40.647Z,1011.08
2016-05-28T08:39:40.666Z,1011.37
2016-05-28T08:40:40.716Z,1011.57
2016-05-28T08:41:40.749Z,1011.05
2016-05-28T08:42:40.783Z,1011
2016-05-28T08:43:40.817Z,1011.02
2016-05-28T08:44:40.851Z,1011
2016-05-28T08:45:40.885Z,1011.28
2016-05-28T08:46:40.919Z,1011.35
2016-05-28T08:48:40.987Z,1011.34
2016-05-28T08:49:41.052Z,1011.34
2016-05-28T08:50:41.071Z,1011.29
2016-05-28T08:51:41.089Z,1011.24
2016-05-28T08:52:41.137Z,1011.21
2016-05-28T08:53:41.173Z,1011.09
2016-05-28T08:54:41.190Z,1011.09
2016-05-28T08:55:41.225Z,1011.06
2016-05-28T08:56:41.259Z,1011.11
2016-05-28T08:57:41.292Z,1011.08
2016-05-28T08:58:41.325Z,1011.11
2016-05-28T08:59:41.360Z,1011.01
2016-05-28T09:00:41.394Z,1011.02
2016-05-28T09:01:41.428Z,1011.01
2016-05-28T09:02:41.461Z,1011.03
2016-05-28T09:04:41.702Z,1010.99
2016-05-28T09:05:41.580Z,1010.95
2016-05-28T09:06:41.613Z,1010.93
2016-05-28T09:07:41.647Z,1010.94
2016-05-28T09:08:41.680Z,1010.94
2016-05-28T09:09:41.715Z,1010.89
2016-05-28T09:10:41.749Z,1010.9
2016-05-28T09:11:41.783Z,1010.85
2016-05-28T09:12:41.816Z,1010.89
2016-05-28T09:13:41.851Z,1010.74
2016-05-28T09:14:41.885Z,1010.7
2016-05-28T09:15:41.935Z,1010.73
2016-05-28T09:16:41.952Z,1010.75
2016-05-28T09:17:41.987Z,1010.72
2016-05-28T09:18:42.021Z,1010.72
2016-05-28T09:20:42.088Z,1010.75
2016-05-28T09:21:42.122Z,1010.76
2016-05-28T09:22:42.173Z,1010.76
2016-05-28T09:23:42.206Z,1010.74
2016-05-28T09:24:42.224Z,1010.7
2016-05-28T09:25:42.259Z,1010.66
2016-05-28T09:26:42.309Z,1010.69
2016-05-28T09:27:42.326Z,1010.72
2016-05-28T09:28:42.359Z,1010.71
2016-05-28T09:29:42.394Z,1010.71
2016-05-28T09:30:42.428Z,1010.69
2016-05-28T09:31:42.462Z,1010.62
2016-05-28T09:32:42.496Z,1010.57
2016-05-28T09:33:42.529Z,1010.51
2016-05-28T09:34:42.563Z,1010.55
2016-05-28T09:36:42.631Z,1010.58
2016-05-28T09:37:42.665Z,1010.54
2016-05-28T09:38:42.715Z,1010.54
2016-05-28T09:39:42.749Z,1010.55
2016-05-28T09:40:42.766Z,1010.6
2016-05-28T09:41:42.817Z,1010.57
2016-05-28T09:42:42.835Z,1010.5
2016-05-28T09:43:42.869Z,1010.56
2016-05-28T09:44:42.902Z,1010.5
2016-05-28T09:45:42.937Z,1010.51
2016-05-28T09:46:42.971Z,1010.53
2016-05-28T09:47:43.005Z,1010.5
2016-05-28T09:48:43.039Z,1010.58
2016-05-28T09:49:43.073Z,1010.58
2016-05-28T09:51:43.140Z,1010.53
2016-05-28T09:52:45.331Z,1010.56
2016-05-28T09:53:43.208Z,1010.57
2016-05-28T09:54:43.242Z,1010.49
2016-05-28T09:55:43.261Z,1010.5
2016-05-28T09:56:43.295Z,1010.51
2016-05-28T09:57:43.344Z,1010.45
2016-05-28T09:58:43.362Z,1010.49
2016-05-28T09:59:43.397Z,1010.49
2016-05-28T10:00:43.431Z,1010.46
2016-05-28T10:01:43.464Z,1010.47
2016-05-28T10:02:43.497Z,1010.47
2016-05-28T10:03:43.532Z,1010.48
2016-05-28T10:04:44.098Z,1010.48
2016-05-28T10:05:43.600Z,1010.45
2016-05-28T10:06:43.743Z,1010.48
2016-05-28T10:07:43.669Z,1010.43
2016-05-28T10:08:43.686Z,1010.45
2016-05-28T10:09:43.736Z,1010.4
2016-05-28T10:10:43.770Z,1010.41
2016-05-28T10:11:44.414Z,1010.37
2016-05-28T10:12:43.822Z,1010.41
2016-05-28T10:13:43.855Z,1010.39
2016-05-28T10:14:43.905Z,1010.4
2016-05-28T10:15:43.908Z,1010.41
2016-05-28T10:16:47.052Z,1010.37
2016-05-28T10:17:43.977Z,1010.39
2016-05-28T10:18:44.026Z,1010.35
2016-05-28T10:19:44.044Z,1010.35
2016-05-28T10:20:44.078Z,1010.35
2016-05-28T10:21:45.393Z,1010.34
2016-05-28T10:23:44.180Z,1010.3
2016-05-28T10:24:44.245Z,1010.35
2016-05-28T10:25:44.231Z,1010.32
2016-05-28T10:26:45.360Z,1010.31
2016-05-28T10:27:44.300Z,1010.31
2016-05-28T10:28:44.334Z,1010.28
2016-05-28T10:29:44.367Z,1010.25
2016-05-28T10:30:44.401Z,1010.3
2016-05-28T10:31:44.436Z,1010.3
2016-05-28T10:32:44.470Z,1010.28
2016-05-28T10:33:44.488Z,1010.26
2016-05-28T10:34:44.522Z,1010.26
2016-05-28T10:35:44.556Z,1010.23
2016-05-28T10:36:44.589Z,1010.24
2016-05-28T10:37:44.624Z,1010.26
2016-05-28T10:39:44.691Z,1010.31
2016-05-28T10:40:44.725Z,1010.27
2016-05-28T10:41:44.760Z,1010.27
2016-05-28T10:42:44.777Z,1010.27
2016-05-28T10:43:44.827Z,1010.27
2016-05-28T10:44:44.846Z,1010.26
2016-05-28T10:45:44.879Z,1010.28
2016-05-28T10:46:44.913Z,1010.24
2016-05-28T10:47:44.947Z,1010.26
2016-05-28T10:48:44.981Z,1010.26
2016-05-28T10:49:45.015Z,1010.26
2016-05-28T10:50:45.049Z,1010.26
2016-05-28T10:51:45.068Z,1010.26
2016-05-28T10:52:45.101Z,1010.26
2016-05-28T10:53:45.135Z,1010.26
2016-05-28T10:55:45.188Z,1010.24
2016-05-28T10:56:45.221Z,1010.21
2016-05-28T10:57:45.256Z,1010.22
2016-05-28T10:58:45.290Z,1010.19
2016-05-28T10:59:45.308Z,1010.19
2016-05-28T11:00:45.342Z,1010.21
2016-05-28T11:01:45.375Z,1010.17
2016-05-28T11:02:45.410Z,1010.17
2016-05-28T11:03:45.444Z,1010.15
2016-05-28T11:04:45.962Z,1010.15
2016-05-28T11:05:45.495Z,1010.14
2016-05-28T11:06:45.530Z,1010.12
2016-05-28T11:07:45.564Z,1010.13
2016-05-28T11:08:45.597Z,1010.11
2016-05-28T11:09:45.631Z,1010.14
2016-05-28T11:11:45.683Z,1010.13
2016-05-28T11:12:45.718Z,1010.13
2016-05-28T11:13:45.752Z,1010.11
2016-05-28T11:14:45.786Z,1010.09
2016-05-28T11:15:45.819Z,1010.14
2016-05-28T11:16:45.838Z,1010.1
2016-05-28T11:17:45.872Z,1010.09
2016-05-28T11:18:45.906Z,1010.09
2016-05-28T11:19:45.955Z,1010.08
2016-05-28T11:20:46.255Z,1010.07
2016-05-28T11:21:46.008Z,1010.09
2016-05-28T11:22:46.042Z,1010.08
2016-05-28T11:23:46.059Z,1010.09
2016-05-28T11:24:46.093Z,1010.06
2016-05-28T11:26:46.162Z,1010.07
2016-05-28T11:27:46.195Z,1010.08
2016-05-28T11:28:46.214Z,1010.06
2016-05-28T11:29:46.248Z,1010.07
2016-05-28T11:30:46.282Z,1010.04
2016-05-28T11:31:46.331Z,1010.06
2016-05-28T11:32:46.350Z,1010.13
2016-05-28T11:33:46.384Z,1010.13
2016-05-28T11:34:46.403Z,1010.11
2016-05-28T11:35:46.436Z,1010.12
2016-05-28T11:36:46.469Z,1010.13
2016-05-28T11:37:46.488Z,1010.15
2016-05-28T11:38:46.522Z,1010.11
2016-05-28T11:39:46.556Z,1010.1
2016-05-28T11:40:46.589Z,1010.14
2016-05-28T11:41:46.625Z,1010.12
2016-05-28T11:42:46.642Z,1010.11
2016-05-28T11:43:46.676Z,1010.09
2016-05-28T11:44:46.710Z,1010.08
2016-05-28T11:45:46.744Z,1010.12
2016-05-28T11:46:46.763Z,1010.1
2016-05-28T11:47:46.797Z,1010.1
2016-05-28T11:48:46.830Z,1010.05
2016-05-28T11:49:46.863Z,1010.06
2016-05-28T11:50:46.899Z,1010.03
2016-05-28T11:51:46.916Z,1010.03
2016-05-28T11:52:46.951Z,1010.03
2016-05-28T11:53:46.984Z,1010.02
2016-05-28T11:54:47.002Z,1010.01
2016-05-28T11:55:47.037Z,1010.02
2016-05-28T11:56:47.071Z,1009.99
2016-05-28T11:58:47.138Z,1009.94
2016-05-28T11:59:47.156Z,1009.96
2016-05-28T12:00:47.207Z,1009.96
2016-05-28T12:01:47.225Z,1010
2016-05-28T12:02:47.259Z,1009.92
2016-05-28T12:03:47.276Z,1009.95
2016-05-28T12:04:47.374Z,1009.95
2016-05-28T12:05:47.345Z,1009.9
2016-05-28T12:06:47.378Z,1009.89
2016-05-28T12:07:47.413Z,1009.84
2016-05-28T12:08:47.430Z,1009.84
2016-05-28T12:09:47.465Z,1009.81
2016-05-28T12:10:47.500Z,1009.8
2016-05-28T12:11:47.533Z,1009.79
2016-05-28T12:12:47.550Z,1009.76
2016-05-28T12:14:47.619Z,1009.79
2016-05-28T12:15:47.653Z,1009.75
2016-05-28T12:16:47.686Z,1009.77
2016-05-28T12:17:47.705Z,1009.74
2016-05-28T12:18:47.739Z,1009.75
2016-05-28T12:19:47.774Z,1009.73
2016-05-28T12:20:47.807Z,1009.72
2016-05-28T12:21:47.841Z,1009.76
2016-05-28T12:22:47.859Z,1009.73
2016-05-28T12:23:47.893Z,1009.71
2016-05-28T12:24:47.927Z,1009.69
2016-05-28T12:25:47.946Z,1009.7
2016-05-28T12:26:47.979Z,1009.68
2016-05-28T12:27:48.013Z,1009.72
2016-05-28T12:28:48.047Z,1009.71
2016-05-28T12:30:48.099Z,1009.65
2016-05-28T12:31:48.133Z,1009.66
2016-05-28T12:32:48.167Z,1009.66
2016-05-28T12:33:48.186Z,1009.68
2016-05-28T12:34:48.345Z,1009.68
2016-05-28T12:35:48.253Z,1009.68
2016-05-28T12:36:48.288Z,1009.65
2016-05-28T12:37:48.322Z,1009.66
2016-05-28T12:38:48.403Z,1009.62
2016-05-28T12:39:48.390Z,1009.65
2016-05-28T12:40:48.423Z,1009.65
2016-05-28T12:41:48.442Z,1009.67
2016-05-28T12:42:48.460Z,1009.64
2016-05-28T12:43:48.509Z,1009.65
2016-05-28T12:44:48.528Z,1009.61
2016-05-28T12:46:48.597Z,1009.62
2016-05-28T12:47:48.614Z,1009.6
2016-05-28T12:48:48.647Z,1009.6